Aircraft
UPR1017 PR-BLB B737-800M
SBCF
Tancredo Neves International Airport
SBSN
Santarém - Maestro Wilson Fonseca International Airport
Pilot:: Alex
Aircraft:: 737 Max 8 Passengers
Alternate: SBEG
Network: poscon
FLIGHT DETAILS
Distance: 1214nm Duration 02h 45m
Cruise Speed: Flight Level: 35000
Validation: Validated Type Charter
Flight Fuel
ZFW: 48509
Block Fuel/Initial FOB: 19204
Flight Fuel: 7292
Cargo
Passengers: 183
Cargo: 1530
ROUTE
ROUTE: DCT
REMARKS:
DATE
Date: 26-08-31
Departure Time: 1241
Cargo: 1530
FLIGHT DETAILS
Crashed: No
Validator Comments: Validado por Claudenir
Flight Rating: 92
LANDING ANALYSIS
Landing wind: 90º/10 kt
Landing heading: 99º
Landing VS:: -358 ft/min
Landing IAS:: 113 kt
Landing Force G: 1.1 G
Landing Bank: -4
Landing Pitch: -6
Landing Flaps: 100
Navigation Lights: ON
Landing Lights: OFF
Beacon Lights: ON
Strobe Lights: ON
viserfly

ALTITUDE CHART

viserfly

MAIN EVENTS

DATE EVENT IAS ALTITUDE
2026-08-31 12:35:59 FLYacars version 1.3.6 0 2808
2026-08-31 12:35:59 Aircraft boarding in progress 0 2808
2026-08-31 12:35:59 FLAPS 37% 0 2808
2026-08-31 12:35:59 Navigation Lights ON 0 2808
2026-08-31 12:35:59 Beacon Lights ON 0 2808
2026-08-31 12:35:59 Strobe Lights ON 0 2808
2026-08-31 12:35:59 Starting Engine 2 0 2808
2026-08-31 12:35:59 Starting Engine 1 0 2808
2026-08-31 12:36:06 Landing Lights ON 0 2808
2026-08-31 12:36:06 Taxi Lights ON 0 2808
2026-08-31 12:37:28 Aircraft taxiing to runway 4 2808
2026-08-31 12:41:04 Detected Take-off roll, HDG 163, IAS 148kt, GS 156kt, G-force 1.1g, Pitch -5.3deg, Bank -1.5deg, Wind 130/05kt, Temp 29°C 148 2813
2026-08-31 12:41:04 Airborne 148 2813
2026-08-31 12:41:10 Gear UP, IAS 161kt, GS 170kt, ALT 65ft AGL 161 2870
2026-08-31 12:41:27 FLAPS 25% 174kt, ALT 3457ft 174 3457
2026-08-31 12:42:20 FLAPS 12% 188kt, ALT 5455ft 188 5455
2026-08-31 12:42:20 FLAPS 0% 189kt, ALT 5465ft 189 5465
2026-08-31 12:44:24 Taxi Lights OFF 239 9478
2026-08-31 12:44:25 Landing Lights OFF 237 9533
2026-08-31 12:54:27 Aircraft on Top Of Climb at 37450ft, IAS 220kt, GS 402kt, HDG 345deg, TAT -47deg, WIND 224/35kt 220 37450
2026-08-31 15:01:37 Aircraft on Top Of Descent at 34496ft, IAS 246kt, GS 407kt, HDG 349deg, TAT -37deg, WIND 275/23kt 246 34496
2026-08-31 15:13:56 Landing lights OFF below 10000fts 277 8994
2026-08-31 15:14:10 Overspeed 250kts below 10000fts 281 8160
2026-08-31 15:23:22 FLAPS 12% 225kt, ALT 3338ft 225 3338
2026-08-31 15:23:29 FLAPS 25% 211kt, ALT 3212ft 211 3212
2026-08-31 15:23:46 FLAPS 37% 177kt, ALT 2870ft 177 2870
2026-08-31 15:23:47 FLAPS 50% 178kt, ALT 2855ft 178 2855
2026-08-31 15:24:15 FLAPS 62% 154kt, ALT 2396ft 154 2396
2026-08-31 15:24:16 Gear DOWN, IAS 154kt, GS 152kt, ALT 2367ft AGL 154 2379
2026-08-31 15:25:19 FLAPS 75% 139kt, ALT 1817ft 139 1817
2026-08-31 15:25:19 FLAPS 87% 139kt, ALT 1816ft 139 1816
2026-08-31 15:25:19 FLAPS 100% 139kt, ALT 1815ft 139 1815
2026-08-31 15:26:17 Stall flag 125 708
2026-08-31 15:26:47 Landed at destination with a landing rate of -358fpm, G-force 1.1g, Pitch -6.5deg, Bank -4.1deg, HDG 99deg, IAS 113kt, GS 108kt, Wind 090/10kt, Temp 32°C 113 211
2026-08-31 15:26:48 Incorrect altimeter settings on landing 113 211
2026-08-31 15:27:01 FLAPS 87% 60 208
2026-08-31 15:27:01 FLAPS 75% 59 208
2026-08-31 15:27:01 FLAPS 62% 59 208
2026-08-31 15:27:02 FLAPS 50% 58 208
2026-08-31 15:27:02 FLAPS 37% 58 208
2026-08-31 15:27:02 FLAPS 25% 57 208
2026-08-31 15:27:11 Aircraft taxiing to apron 33 207
2026-08-31 15:27:11 Taxing and taxi lights OFF 33 207
2026-08-31 15:27:13 FLAPS 12% 29 206
2026-08-31 15:27:13 FLAPS 0% 29 206
2026-08-31 15:31:12 Aircraft at gate/stand, ground services are moving into position, disembarkation has begun. Remaining FOB 11912kg FLYacars v1.3.6 0 207
viserfly

ACARS DATA

DATE IAS GS ALTITUDE FUEL CONSUMED OAT FLIGHT STATUS
2026-08-31 12:36:29 0 0 2808 5 29 BOARDING
2026-08-31 12:36:59 0 0 2808 10 29 BOARDING
2026-08-31 12:37:29 5 6 2808 17 29 TAXI TO RUNWAY
2026-08-31 12:37:59 7 0 2806 25 29 TAXI TO RUNWAY
2026-08-31 12:38:29 3 0 2806 29 29 TAXI TO RUNWAY
2026-08-31 12:38:59 4 0 2806 34 29 TAXI TO RUNWAY
2026-08-31 12:39:29 4 0 2806 39 29 TAXI TO RUNWAY
2026-08-31 12:39:59 6 0 2806 44 29 TAXI TO RUNWAY
2026-08-31 12:40:29 13 8 2806 51 29 TAXI TO RUNWAY
2026-08-31 12:40:59 134 138 2811 84 29 TAKEOFF
2026-08-31 12:41:29 173 184 3532 116 27 TAKEOFF
2026-08-31 12:41:59 178 200 4847 147 22 CLIMB
2026-08-31 12:42:29 203 230 5586 175 20 DESCENT
2026-08-31 12:42:59 226 256 5995 198 19 CLIMB
2026-08-31 12:43:29 227 262 7530 225 15 ENROUTE
2026-08-31 12:43:59 240 281 8301 249 14 CLIMB
2026-08-31 12:44:29 238 285 9721 276 10 CLIMB
2026-08-31 12:44:59 224 277 11389 303 7 CLIMB
2026-08-31 12:45:29 205 263 13275 334 3 CLIMB
2026-08-31 12:45:59 226 296 14965 389 0 CLIMB
2026-08-31 12:46:29 247 327 16457 441 -2 CLIMB
2026-08-31 12:46:59 246 335 17888 489 -4 CLIMB
2026-08-31 12:47:29 247 342 19293 537 -6 CLIMB
2026-08-31 12:47:59 247 350 20921 588 -10 CLIMB
2026-08-31 12:48:29 242 353 22821 641 -13 CLIMB
2026-08-31 12:48:59 231 348 24973 696 -18 CLIMB
2026-08-31 12:49:29 218 340 27054 751 -22 CLIMB
2026-08-31 12:49:59 222 352 28320 805 -25 CLIMB
2026-08-31 12:50:29 224 360 29623 860 -28 CLIMB
2026-08-31 12:50:59 222 364 30919 914 -31 CLIMB
2026-08-31 12:51:29 218 365 32196 968 -34 CLIMB
2026-08-31 12:51:59 220 372 33132 1021 -37 CLIMB
2026-08-31 12:52:29 223 383 33946 1074 -39 CLIMB
2026-08-31 12:52:59 223 390 34855 1127 -42 CLIMB
2026-08-31 12:53:29 222 395 35751 1179 -44 CLIMB
2026-08-31 12:53:59 222 399 36643 1230 -46 CLIMB
2026-08-31 12:54:29 220 404 37449 1279 -47 ENROUTE
2026-08-31 12:54:59 236 429 37456 1328 -47 ENROUTE
2026-08-31 12:55:29 244 443 37466 1373 -47 ENROUTE
2026-08-31 12:55:59 244 443 37464 1414 -47 ENROUTE
2026-08-31 12:56:29 244 444 37461 1455 -47 ENROUTE
2026-08-31 12:56:59 244 443 37465 1495 -47 ENROUTE
2026-08-31 12:57:29 244 444 37465 1536 -47 ENROUTE
2026-08-31 12:57:59 245 444 37467 1576 -47 ENROUTE
2026-08-31 12:58:29 245 445 37467 1617 -47 ENROUTE
2026-08-31 12:58:59 245 445 37469 1647 -47 ENROUTE
2026-08-31 12:59:29 245 445 37469 1667 -47 ENROUTE
2026-08-31 12:59:59 245 445 37484 1688 -47 ENROUTE
2026-08-31 13:00:29 244 444 37482 1708 -47 ENROUTE
2026-08-31 13:00:59 245 437 37495 1728 -47 ENROUTE
2026-08-31 13:01:29 245 437 37498 1749 -47 ENROUTE
2026-08-31 13:01:59 245 437 37497 1769 -47 ENROUTE
2026-08-31 13:02:29 245 438 37498 1789 -47 ENROUTE
2026-08-31 13:02:59 245 437 37499 1810 -47 ENROUTE
2026-08-31 13:03:29 245 437 37501 1830 -47 ENROUTE
2026-08-31 13:03:59 245 437 37502 1850 -47 ENROUTE
2026-08-31 13:04:29 245 438 37496 1870 -47 ENROUTE
2026-08-31 13:04:59 245 438 37496 1891 -47 ENROUTE
2026-08-31 13:05:29 245 438 37497 1911 -47 ENROUTE
2026-08-31 13:05:59 245 439 37497 1931 -47 ENROUTE
2026-08-31 13:06:29 245 438 37498 1952 -47 ENROUTE
2026-08-31 13:06:59 245 438 37499 1972 -47 ENROUTE
2026-08-31 13:07:29 245 438 37500 1992 -47 ENROUTE
2026-08-31 13:07:59 245 438 37500 2012 -47 ENROUTE
2026-08-31 13:08:29 245 438 37500 2033 -47 ENROUTE
2026-08-31 13:08:59 245 438 37501 2053 -47 ENROUTE
2026-08-31 13:09:29 245 439 37501 2073 -46 ENROUTE
2026-08-31 13:09:59 245 439 37502 2094 -46 ENROUTE
2026-08-31 13:10:29 245 439 37501 2114 -46 ENROUTE
2026-08-31 13:10:59 245 439 37502 2134 -46 ENROUTE
2026-08-31 13:11:29 245 439 37504 2154 -46 ENROUTE
2026-08-31 13:11:59 245 441 37502 2175 -46 ENROUTE
2026-08-31 13:12:29 245 440 37503 2195 -46 ENROUTE
2026-08-31 13:12:59 246 440 37505 2215 -46 ENROUTE
2026-08-31 13:13:29 246 440 37507 2235 -46 ENROUTE
2026-08-31 13:13:59 246 440 37507 2255 -46 ENROUTE
2026-08-31 13:14:29 245 440 37506 2276 -46 ENROUTE
2026-08-31 13:14:59 245 440 37507 2296 -46 ENROUTE
2026-08-31 13:15:29 246 440 37508 2316 -46 ENROUTE
2026-08-31 13:15:59 246 440 37508 2336 -46 ENROUTE
2026-08-31 13:16:29 245 440 37509 2357 -46 ENROUTE
2026-08-31 13:16:59 245 441 37509 2377 -46 ENROUTE
2026-08-31 13:17:29 245 446 37521 2398 -46 ENROUTE
2026-08-31 13:17:59 246 444 37527 2417 -46 ENROUTE
2026-08-31 13:18:29 245 443 37525 2437 -46 ENROUTE
2026-08-31 13:18:59 245 443 37525 2457 -46 ENROUTE
2026-08-31 13:19:29 245 443 37525 2478 -46 ENROUTE
2026-08-31 13:19:59 245 443 37526 2498 -46 ENROUTE
2026-08-31 13:20:29 245 443 37528 2518 -46 ENROUTE
2026-08-31 13:20:59 245 443 37528 2538 -46 ENROUTE
2026-08-31 13:21:29 245 443 37528 2558 -46 ENROUTE
2026-08-31 13:21:59 245 443 37528 2578 -46 ENROUTE
2026-08-31 13:22:29 245 441 37530 2598 -46 ENROUTE
2026-08-31 13:22:59 245 438 37539 2619 -46 ENROUTE
2026-08-31 13:23:29 245 438 37539 2639 -46 ENROUTE
2026-08-31 13:23:59 245 438 37540 2660 -46 ENROUTE
2026-08-31 13:24:29 245 439 37544 2680 -46 ENROUTE
2026-08-31 13:24:59 245 438 37544 2700 -46 ENROUTE
2026-08-31 13:25:29 245 438 37544 2720 -46 ENROUTE
2026-08-31 13:25:59 245 438 37541 2740 -46 ENROUTE
2026-08-31 13:26:29 245 438 37542 2760 -46 ENROUTE
2026-08-31 13:26:59 245 438 37541 2780 -46 ENROUTE
2026-08-31 13:27:29 246 438 37544 2801 -46 ENROUTE
2026-08-31 13:27:59 245 438 37543 2821 -46 ENROUTE
2026-08-31 13:28:29 245 437 37543 2841 -46 ENROUTE
2026-08-31 13:28:59 245 438 37545 2861 -46 ENROUTE
2026-08-31 13:29:29 245 438 37545 2881 -46 ENROUTE
2026-08-31 13:29:59 246 438 37545 2901 -46 ENROUTE
2026-08-31 13:30:29 245 437 37546 2921 -46 ENROUTE
2026-08-31 13:30:59 245 437 37545 2941 -46 ENROUTE
2026-08-31 13:31:29 245 437 37546 2961 -46 ENROUTE
2026-08-31 13:31:59 245 437 37545 2982 -46 ENROUTE
2026-08-31 13:32:29 245 437 37547 3002 -46 ENROUTE
2026-08-31 13:32:59 245 437 37548 3022 -46 ENROUTE
2026-08-31 13:33:29 245 437 37548 3042 -46 ENROUTE
2026-08-31 13:33:59 245 437 37548 3062 -46 ENROUTE
2026-08-31 13:34:29 245 437 37550 3082 -46 ENROUTE
2026-08-31 13:34:59 245 437 37549 3103 -46 ENROUTE
2026-08-31 13:35:29 246 437 37550 3123 -46 ENROUTE
2026-08-31 13:35:59 246 437 37550 3143 -46 ENROUTE
2026-08-31 13:36:29 246 437 37551 3163 -46 ENROUTE
2026-08-31 13:36:59 246 437 37551 3183 -46 ENROUTE
2026-08-31 13:37:29 245 439 37619 3204 -46 CLIMB
2026-08-31 13:37:59 245 441 37571 3223 -46 ENROUTE
2026-08-31 13:38:29 245 440 37569 3243 -46 ENROUTE
2026-08-31 13:38:59 245 441 37570 3264 -46 ENROUTE
2026-08-31 13:39:29 245 440 37566 3284 -46 ENROUTE
2026-08-31 13:39:59 245 440 37568 3304 -46 ENROUTE
2026-08-31 13:40:29 245 440 37570 3324 -46 ENROUTE
2026-08-31 13:40:59 245 440 37569 3344 -46 ENROUTE
2026-08-31 13:41:29 245 440 37571 3364 -46 ENROUTE
2026-08-31 13:41:59 245 440 37571 3384 -46 ENROUTE
2026-08-31 13:42:29 245 440 37572 3404 -46 ENROUTE
2026-08-31 13:42:59 245 440 37572 3425 -46 ENROUTE
2026-08-31 13:43:29 245 440 37572 3445 -46 ENROUTE
2026-08-31 13:43:59 245 440 37573 3465 -46 ENROUTE
2026-08-31 13:44:29 245 440 37574 3485 -46 ENROUTE
2026-08-31 13:44:59 245 440 37575 3505 -46 ENROUTE
2026-08-31 13:45:29 245 440 37574 3525 -46 ENROUTE
2026-08-31 13:45:59 245 440 37575 3545 -46 ENROUTE
2026-08-31 13:46:29 245 439 37576 3565 -46 ENROUTE
2026-08-31 13:46:59 245 439 37577 3585 -46 ENROUTE
2026-08-31 13:47:29 245 439 37576 3605 -46 ENROUTE
2026-08-31 13:47:59 245 439 37576 3626 -46 ENROUTE
2026-08-31 13:48:29 245 439 37576 3646 -45 ENROUTE
2026-08-31 13:48:59 245 440 37577 3666 -45 ENROUTE
2026-08-31 13:49:29 245 440 37578 3686 -45 ENROUTE
2026-08-31 13:49:59 245 440 37578 3706 -45 ENROUTE
2026-08-31 13:50:29 246 440 37580 3727 -45 ENROUTE
2026-08-31 13:50:59 245 440 37578 3747 -45 ENROUTE
2026-08-31 13:51:29 245 440 37580 3767 -45 ENROUTE
2026-08-31 13:51:59 245 440 37578 3787 -45 ENROUTE
2026-08-31 13:52:29 245 440 37580 3807 -45 ENROUTE
2026-08-31 13:52:59 245 440 37580 3827 -45 ENROUTE
2026-08-31 13:53:29 246 440 37582 3847 -45 ENROUTE
2026-08-31 13:53:59 246 439 37583 3868 -45 ENROUTE
2026-08-31 13:54:29 246 439 37584 3888 -45 ENROUTE
2026-08-31 13:54:59 245 439 37584 3908 -45 ENROUTE
2026-08-31 13:55:29 245 439 37583 3928 -45 ENROUTE
2026-08-31 13:55:59 245 439 37583 3948 -45 ENROUTE
2026-08-31 13:56:29 245 439 37583 3968 -45 ENROUTE
2026-08-31 13:56:59 245 439 37584 3988 -45 ENROUTE
2026-08-31 13:57:29 245 439 37584 4008 -45 ENROUTE
2026-08-31 13:57:59 245 439 37584 4028 -45 ENROUTE
2026-08-31 13:58:29 246 439 37586 4049 -45 ENROUTE
2026-08-31 13:58:59 246 438 37587 4069 -45 ENROUTE
2026-08-31 13:59:29 246 438 37587 4089 -45 ENROUTE
2026-08-31 13:59:59 246 438 37587 4109 -45 ENROUTE
2026-08-31 14:00:29 246 438 37588 4129 -45 ENROUTE
2026-08-31 14:00:59 245 436 37587 4149 -45 ENROUTE
2026-08-31 14:01:29 244 436 37584 4169 -45 ENROUTE
2026-08-31 14:01:59 244 436 37583 4189 -45 ENROUTE
2026-08-31 14:02:29 244 436 37583 4209 -45 ENROUTE
2026-08-31 14:02:59 244 436 37584 4229 -45 ENROUTE
2026-08-31 14:03:29 245 436 37585 4250 -45 ENROUTE
2026-08-31 14:03:59 245 436 37585 4270 -45 ENROUTE
2026-08-31 14:04:29 244 436 37586 4290 -45 ENROUTE
2026-08-31 14:04:59 245 437 37587 4311 -45 ENROUTE
2026-08-31 14:05:29 245 437 37589 4331 -45 ENROUTE
2026-08-31 14:05:59 245 438 37589 4351 -45 ENROUTE
2026-08-31 14:06:29 245 438 37590 4372 -45 ENROUTE
2026-08-31 14:06:59 245 438 37591 4392 -45 ENROUTE
2026-08-31 14:07:29 245 438 37592 4412 -45 ENROUTE
2026-08-31 14:07:59 245 438 37593 4432 -45 ENROUTE
2026-08-31 14:08:29 245 437 37596 4452 -45 ENROUTE
2026-08-31 14:08:59 245 436 37595 4473 -45 ENROUTE
2026-08-31 14:09:29 245 437 37593 4493 -45 ENROUTE
2026-08-31 14:09:59 245 437 37594 4513 -45 ENROUTE
2026-08-31 14:10:29 245 437 37596 4533 -45 ENROUTE
2026-08-31 14:10:59 245 436 37597 4553 -45 ENROUTE
2026-08-31 14:11:29 245 436 37597 4573 -45 ENROUTE
2026-08-31 14:11:59 245 436 37599 4593 -45 ENROUTE
2026-08-31 14:12:29 245 436 37598 4613 -45 ENROUTE
2026-08-31 14:12:59 245 436 37599 4634 -45 ENROUTE
2026-08-31 14:13:29 245 435 37600 4653 -45 ENROUTE
2026-08-31 14:13:59 245 434 37597 4673 -45 ENROUTE
2026-08-31 14:14:29 245 434 37598 4694 -45 ENROUTE
2026-08-31 14:14:59 244 434 37600 4714 -45 ENROUTE
2026-08-31 14:15:29 244 435 37598 4734 -45 ENROUTE
2026-08-31 14:15:59 244 434 37602 4754 -45 ENROUTE
2026-08-31 14:16:29 245 433 37602 4774 -45 ENROUTE
2026-08-31 14:16:59 243 433 37601 4794 -45 ENROUTE
2026-08-31 14:17:29 245 434 37602 4815 -45 ENROUTE
2026-08-31 14:17:59 245 434 37603 4835 -45 ENROUTE
2026-08-31 14:18:29 245 434 37603 4855 -45 ENROUTE
2026-08-31 14:18:59 245 434 37606 4875 -45 ENROUTE
2026-08-31 14:19:29 244 433 37607 4895 -45 ENROUTE
2026-08-31 14:19:59 245 434 37606 4915 -45 ENROUTE
2026-08-31 14:20:29 244 434 37608 4936 -45 ENROUTE
2026-08-31 14:20:59 245 433 37603 4956 -45 ENROUTE
2026-08-31 14:21:29 245 435 37605 4976 -45 ENROUTE
2026-08-31 14:21:59 245 435 37606 4996 -45 ENROUTE
2026-08-31 14:22:29 245 435 37601 5016 -45 ENROUTE
2026-08-31 14:22:59 245 435 37600 5037 -45 ENROUTE
2026-08-31 14:23:29 244 435 37602 5057 -45 ENROUTE
2026-08-31 14:23:59 245 435 37603 5077 -45 ENROUTE
2026-08-31 14:24:29 245 436 37604 5097 -45 ENROUTE
2026-08-31 14:24:59 245 435 37604 5118 -45 ENROUTE
2026-08-31 14:25:29 245 437 37606 5138 -45 ENROUTE
2026-08-31 14:25:59 246 436 37607 5158 -45 ENROUTE
2026-08-31 14:26:29 245 436 37608 5178 -45 ENROUTE
2026-08-31 14:26:59 245 435 37607 5198 -45 ENROUTE
2026-08-31 14:27:29 245 436 37608 5218 -45 ENROUTE
2026-08-31 14:27:59 245 436 37609 5239 -45 ENROUTE
2026-08-31 14:28:29 246 435 37609 5259 -45 ENROUTE
2026-08-31 14:28:59 245 433 37610 5278 -45 ENROUTE
2026-08-31 14:29:29 245 433 37609 5298 -45 ENROUTE
2026-08-31 14:29:59 245 434 37607 5318 -45 ENROUTE
2026-08-31 14:30:29 245 434 37607 5339 -45 ENROUTE
2026-08-31 14:30:59 245 434 37608 5359 -45 ENROUTE
2026-08-31 14:31:29 245 432 37610 5379 -45 ENROUTE
2026-08-31 14:31:59 245 432 37609 5399 -45 ENROUTE
2026-08-31 14:32:29 245 432 37610 5419 -45 ENROUTE
2026-08-31 14:32:59 245 432 37611 5439 -45 ENROUTE
2026-08-31 14:33:29 244 432 37610 5459 -45 ENROUTE
2026-08-31 14:33:59 245 432 37604 5479 -45 ENROUTE
2026-08-31 14:34:29 245 431 37605 5499 -45 ENROUTE
2026-08-31 14:34:59 245 431 37604 5519 -45 ENROUTE
2026-08-31 14:35:29 245 431 37605 5539 -45 ENROUTE
2026-08-31 14:35:59 245 431 37606 5559 -45 ENROUTE
2026-08-31 14:36:29 247 431 37606 5579 -45 ENROUTE
2026-08-31 14:36:59 245 428 37607 5599 -45 ENROUTE
2026-08-31 14:37:29 245 428 37608 5619 -45 ENROUTE
2026-08-31 14:37:59 245 430 37606 5640 -45 ENROUTE
2026-08-31 14:38:29 245 430 37607 5660 -45 ENROUTE
2026-08-31 14:38:59 245 430 37608 5680 -45 ENROUTE
2026-08-31 14:39:29 246 427 37611 5699 -45 ENROUTE
2026-08-31 14:39:59 245 426 37610 5719 -45 ENROUTE
2026-08-31 14:40:29 245 426 37609 5739 -45 ENROUTE
2026-08-31 14:40:59 245 426 37609 5759 -45 ENROUTE
2026-08-31 14:41:29 245 426 37609 5779 -45 ENROUTE
2026-08-31 14:41:59 246 425 37612 5799 -45 ENROUTE
2026-08-31 14:42:29 245 424 37611 5818 -45 ENROUTE
2026-08-31 14:42:59 245 423 37610 5838 -45 ENROUTE
2026-08-31 14:43:29 245 423 37611 5859 -45 ENROUTE
2026-08-31 14:43:59 245 424 37610 5879 -45 ENROUTE
2026-08-31 14:44:29 245 424 37611 5899 -45 ENROUTE
2026-08-31 14:44:59 245 422 37613 5918 -45 ENROUTE
2026-08-31 14:45:29 245 421 37612 5938 -45 ENROUTE
2026-08-31 14:45:59 245 421 37613 5958 -45 ENROUTE
2026-08-31 14:46:29 244 421 37613 5978 -45 ENROUTE
2026-08-31 14:46:59 245 422 37612 5999 -45 ENROUTE
2026-08-31 14:47:29 245 422 37613 6019 -45 ENROUTE
2026-08-31 14:47:59 245 422 37614 6039 -45 ENROUTE
2026-08-31 14:48:29 245 422 37615 6059 -45 ENROUTE
2026-08-31 14:48:59 245 422 37615 6079 -45 ENROUTE
2026-08-31 14:49:29 245 422 37611 6099 -45 ENROUTE
2026-08-31 14:49:59 245 422 37612 6119 -45 ENROUTE
2026-08-31 14:50:29 245 422 37613 6139 -45 ENROUTE
2026-08-31 14:50:59 245 422 37615 6159 -45 ENROUTE
2026-08-31 14:51:29 245 422 37614 6179 -45 ENROUTE
2026-08-31 14:51:59 245 422 37614 6199 -45 ENROUTE
2026-08-31 14:52:29 245 422 37615 6219 -45 ENROUTE
2026-08-31 14:52:59 245 422 37609 6240 -45 ENROUTE
2026-08-31 14:53:29 245 422 37609 6259 -45 ENROUTE
2026-08-31 14:53:59 245 422 37611 6280 -45 ENROUTE
2026-08-31 14:54:29 245 422 37611 6299 -45 ENROUTE
2026-08-31 14:54:59 245 422 37611 6320 -45 ENROUTE
2026-08-31 14:55:29 245 423 37611 6340 -45 ENROUTE
2026-08-31 14:55:59 246 423 37613 6360 -45 ENROUTE
2026-08-31 14:56:29 245 422 37614 6380 -45 ENROUTE
2026-08-31 14:56:59 245 421 37613 6400 -45 ENROUTE
2026-08-31 14:57:29 245 421 37614 6420 -45 ENROUTE
2026-08-31 14:57:59 245 422 37614 6440 -45 ENROUTE
2026-08-31 14:58:29 245 421 37614 6460 -45 ENROUTE
2026-08-31 14:58:59 246 421 37615 6480 -45 ENROUTE
2026-08-31 14:59:29 245 421 37616 6500 -45 ENROUTE
2026-08-31 14:59:59 243 417 37446 6517 -44 DESCENT
2026-08-31 15:00:29 245 414 36525 6521 -42 DESCENT
2026-08-31 15:00:59 246 411 35624 6526 -40 DESCENT
2026-08-31 15:01:29 246 408 34726 6530 -37 DESCENT
2026-08-31 15:01:59 246 405 33829 6535 -35 DESCENT
2026-08-31 15:02:29 245 403 32929 6539 -33 DESCENT
2026-08-31 15:02:59 244 401 32030 6544 -30 DESCENT
2026-08-31 15:03:29 245 400 31130 6549 -28 DESCENT
2026-08-31 15:03:59 246 399 30236 6553 -26 DESCENT
2026-08-31 15:04:29 246 397 29341 6558 -24 DESCENT
2026-08-31 15:04:59 247 396 28445 6563 -22 DESCENT
2026-08-31 15:05:29 250 395 27560 6567 -20 DESCENT
2026-08-31 15:05:59 251 393 26672 6572 -18 DESCENT
2026-08-31 15:06:29 252 391 25781 6577 -16 DESCENT
2026-08-31 15:06:59 253 390 24887 6582 -14 DESCENT
2026-08-31 15:07:29 255 389 23997 6586 -12 DESCENT
2026-08-31 15:07:59 258 386 23110 6591 -10 DESCENT
2026-08-31 15:08:29 260 383 22222 6596 -9 DESCENT
2026-08-31 15:08:59 262 380 21335 6600 -7 DESCENT
2026-08-31 15:09:29 264 377 20447 6605 -5 DESCENT
2026-08-31 15:09:59 266 374 19559 6610 -4 DESCENT
2026-08-31 15:10:29 268 371 18668 6615 -3 DESCENT
2026-08-31 15:10:59 271 367 17779 6619 -2 DESCENT
2026-08-31 15:11:29 273 363 16890 6624 -1 DESCENT
2026-08-31 15:11:59 274 358 15999 6629 0 DESCENT
2026-08-31 15:12:29 277 350 14226 6638 0 DESCENT
2026-08-31 15:12:59 275 343 12434 6648 5 DESCENT
2026-08-31 15:13:29 274 338 10627 6657 9 DESCENT
2026-08-31 15:13:59 278 334 8840 6667 12 DESCENT
2026-08-31 15:14:29 281 329 7058 6676 15 DESCENT
2026-08-31 15:14:59 286 323 5274 6686 19 DESCENT
2026-08-31 15:15:29 270 296 3999 6696 22 ENROUTE
2026-08-31 15:15:59 223 243 3989 6706 22 ENROUTE
2026-08-31 15:16:29 222 245 3995 6734 22 ENROUTE
2026-08-31 15:16:59 224 244 3996 6761 22 ENROUTE
2026-08-31 15:17:29 222 247 4002 6789 21 ENROUTE
2026-08-31 15:17:59 225 239 4004 6816 21 ENROUTE
2026-08-31 15:18:29 220 240 4002 6844 21 ENROUTE
2026-08-31 15:18:59 223 238 4007 6871 21 ENROUTE
2026-08-31 15:19:29 224 239 4008 6899 21 ENROUTE
2026-08-31 15:19:59 226 243 4010 6927 22 ENROUTE
2026-08-31 15:20:29 226 246 4001 6953 21 ENROUTE
2026-08-31 15:20:59 226 243 4006 6981 21 ENROUTE
2026-08-31 15:21:29 224 244 3993 7008 21 ENROUTE
2026-08-31 15:21:59 226 246 3997 7028 21 ENROUTE
2026-08-31 15:22:29 241 257 4013 7045 21 ENROUTE
2026-08-31 15:22:59 220 237 3945 7050 21 DESCENT
2026-08-31 15:23:29 211 219 3212 7055 23 DESCENT
2026-08-31 15:23:59 163 165 2726 7060 24 DESCENT
2026-08-31 15:24:29 149 148 2031 7068 26 APPROACH
2026-08-31 15:24:59 146 146 1505 7084 27 APPROACH
2026-08-31 15:25:29 133 132 1665 7125 27 APPROACH
2026-08-31 15:25:59 131 133 1185 7169 28 APPROACH
2026-08-31 15:26:29 128 126 463 7209 32 ON FINAL
2026-08-31 15:26:59 67 59 208 7219 32 ON FINAL
2026-08-31 15:27:29 28 17 206 7231 32 TAXI TO APRON
2026-08-31 15:27:59 18 9 209 7247 32 TAXI TO APRON
2026-08-31 15:28:29 28 22 207 7259 32 TAXI TO APRON
2026-08-31 15:28:59 7 1 207 7264 32 TAXI TO APRON
2026-08-31 15:29:29 19 11 207 7272 32 TAXI TO APRON
2026-08-31 15:29:59 17 8 207 7278 32 TAXI TO APRON
2026-08-31 15:30:29 22 13 207 7286 32 TAXI TO APRON
2026-08-31 15:30:59 0 1 207 7291 32 TAXI TO APRON
  • Join our VA!

    It has been 11 years of great learning, friendships, and stories.

  • Sign up now!